createdAt,value
2023-03-24T00:00:28.398Z,76.43
2023-03-24T00:03:17.627Z,76.79
2023-03-24T00:05:45.187Z,77.12
2023-03-24T00:08:12.186Z,77.46
2023-03-24T00:10:40.460Z,77.66
2023-03-24T00:13:07.398Z,77.75
2023-03-24T00:15:36.535Z,77.82
2023-03-24T00:18:04.391Z,77.84
2023-03-24T00:20:33.147Z,77.64
2023-03-24T00:23:00.144Z,77.52
2023-03-24T00:25:36.473Z,77.55
2023-03-24T00:28:05.982Z,77.62
2023-03-24T00:30:35.158Z,77.66
2023-03-24T00:33:02.536Z,77.84
2023-03-24T00:35:30.017Z,78.18
2023-03-24T00:37:57.381Z,78.65
2023-03-24T00:40:25.089Z,78.85
2023-03-24T00:42:52.961Z,78.93
2023-03-24T00:45:23.573Z,79.02
2023-03-24T00:47:54.669Z,79.42
2023-03-24T00:50:26.638Z,79.45
2023-03-24T00:52:54.790Z,79.74
2023-03-24T00:55:23.121Z,79.85
2023-03-24T00:57:51.237Z,79.84
2023-03-24T01:00:25.373Z,80.06
2023-03-24T01:02:55.958Z,80.25
2023-03-24T01:05:31.221Z,80.53
2023-03-24T01:08:03.769Z,80.76
2023-03-24T01:10:53.183Z,80.90
2023-03-24T01:13:28.857Z,81.31
2023-03-24T01:15:57.607Z,81.37
2023-03-24T01:18:24.523Z,81.31
2023-03-24T01:20:53.412Z,81.78
2023-03-24T01:23:23.905Z,81.76
2023-03-24T01:25:52.533Z,82.17
2023-03-24T01:28:24.735Z,82.36
2023-03-24T01:30:53.246Z,82.54
2023-03-24T01:33:21.525Z,82.62
2023-03-24T01:35:49.444Z,82.63
2023-03-24T01:38:16.571Z,83.05
2023-03-24T01:40:47.346Z,83.76
2023-03-24T01:43:21.983Z,83.62
2023-03-24T01:45:57.916Z,83.74
2023-03-24T01:48:41.652Z,83.96
2023-03-24T01:51:14.933Z,83.91
2023-03-24T01:53:59.617Z,84.10
2023-03-24T01:56:31.269Z,84.02
2023-03-24T01:59:02.696Z,84.28
2023-03-24T02:02:03.514Z,84.36
2023-03-24T02:04:44.973Z,84.61
2023-03-24T02:07:31.227Z,84.82
2023-03-24T02:09:58.206Z,84.86
2023-03-24T02:12:25.544Z,85.20
2023-03-24T02:14:53.800Z,85.64
2023-03-24T02:18:06.169Z,85.79
2023-03-24T02:20:56.110Z,86.11
2023-03-24T02:23:52.052Z,86.31
2023-03-24T02:26:28.412Z,86.33
2023-03-24T02:29:17.236Z,86.49
2023-03-24T02:31:59.510Z,86.55
2023-03-24T02:35:02.723Z,86.85
2023-03-24T02:37:39.417Z,87.12
2023-03-24T02:40:15.380Z,87.44
2023-03-24T02:42:49.020Z,87.49
2023-03-24T02:45:29.908Z,87.57
2023-03-24T02:48:34.061Z,87.64
2023-03-24T02:51:42.349Z,87.77
2023-03-24T02:54:16.922Z,87.79
2023-03-24T02:56:55.666Z,88.00
2023-03-24T02:59:57.443Z,88.01
2023-03-24T03:03:13.092Z,88.08
2023-03-24T03:05:47.606Z,88.28
2023-03-24T03:08:21.148Z,88.35
2023-03-24T03:10:51.051Z,88.64
2023-03-24T03:13:42.612Z,88.78
2023-03-24T03:16:16.311Z,88.83
2023-03-24T03:18:51.710Z,89.05
2023-03-24T03:21:24.085Z,89.22
2023-03-24T03:24:11.562Z,89.41
2023-03-24T03:26:40.234Z,89.33
2023-03-24T03:29:18.939Z,89.74
2023-03-24T03:32:07.654Z,89.89
2023-03-24T03:34:38.327Z,89.87
2023-03-24T03:37:21.540Z,89.78
2023-03-24T03:39:55.219Z,90.28
2023-03-24T03:42:22.955Z,90.44
2023-03-24T03:44:50.908Z,90.35
2023-03-24T03:47:19.088Z,90.63
2023-03-24T03:49:46.258Z,90.48
2023-03-24T03:52:14.161Z,90.73
2023-03-24T03:54:43.168Z,90.76
2023-03-24T03:57:12.671Z,90.50
2023-03-24T04:00:11.865Z,90.60
2023-03-24T04:02:56.357Z,90.56
2023-03-24T04:05:50.409Z,90.58
2023-03-24T04:08:46.690Z,90.91
2023-03-24T04:11:36.219Z,90.94
2023-03-24T04:14:41.613Z,90.93
2023-03-24T04:17:48.133Z,90.73
2023-03-24T04:20:38.317Z,91.02
2023-03-24T04:23:34.296Z,91.01
2023-03-24T04:26:26.417Z,91.20
2023-03-24T04:29:34.810Z,91.36
2023-03-24T04:32:19.558Z,91.49
2023-03-24T04:34:56.072Z,91.43
2023-03-24T04:37:50.034Z,91.57
2023-03-24T04:40:23.881Z,91.81
2023-03-24T04:42:55.148Z,91.94
2023-03-24T04:45:28.492Z,91.94
2023-03-24T04:48:17.714Z,92.20
2023-03-24T04:51:12.519Z,91.87
2023-03-24T04:53:58.295Z,92.02
2023-03-24T04:56:47.892Z,91.82
2023-03-24T04:59:34.286Z,91.95
2023-03-24T05:02:03.935Z,91.92
2023-03-24T05:04:49.510Z,92.06
2023-03-24T05:07:21.425Z,91.64
2023-03-24T05:09:52.346Z,91.71
2023-03-24T05:12:19.573Z,91.46
2023-03-24T05:15:07.051Z,91.24
2023-03-24T05:17:35.688Z,91.26
2023-03-24T05:20:06.907Z,91.02
2023-03-24T05:22:34.277Z,91.05
2023-03-24T05:25:01.352Z,90.69
2023-03-24T05:27:28.812Z,90.39
2023-03-24T05:29:55.940Z,90.17
2023-03-24T05:32:27.465Z,89.98
2023-03-24T05:34:55.129Z,89.59
2023-03-24T05:37:29.863Z,89.44
2023-03-24T05:39:56.995Z,89.47
2023-03-24T05:42:38.464Z,89.01
2023-03-24T05:45:06.550Z,88.64
2023-03-24T05:47:34.202Z,88.33
2023-03-24T05:50:01.206Z,87.80
2023-03-24T05:52:31.676Z,87.54
2023-03-24T05:55:11.741Z,87.21
2023-03-24T05:57:40.661Z,87.24
2023-03-24T06:00:26.648Z,86.88
2023-03-24T06:03:00.806Z,86.62
2023-03-24T06:05:38.700Z,86.42
2023-03-24T06:08:06.017Z,85.95
2023-03-24T06:10:36.936Z,85.90
2023-03-24T06:13:04.911Z,85.58
2023-03-24T06:15:33.999Z,85.29
2023-03-24T06:18:21.660Z,85.04
2023-03-24T06:20:50.790Z,85.04
2023-03-24T06:23:25.982Z,84.67
2023-03-24T06:26:09.155Z,84.07
2023-03-24T06:28:39.838Z,83.93
2023-03-24T06:31:20.487Z,83.80
2023-03-24T06:33:51.691Z,83.53
2023-03-24T06:36:19.517Z,83.33
2023-03-24T06:38:47.102Z,82.76
2023-03-24T06:41:18.268Z,82.72
2023-03-24T06:43:47.084Z,82.36
2023-03-24T06:46:15.152Z,81.57
2023-03-24T06:48:46.956Z,81.64
2023-03-24T06:51:13.958Z,81.42
2023-03-24T06:53:44.061Z,81.23
2023-03-24T06:56:16.621Z,81.22
2023-03-24T06:58:48.086Z,80.79
2023-03-24T07:01:18.937Z,80.64
2023-03-24T07:04:21.816Z,80.25
2023-03-24T07:07:19.574Z,80.38
2023-03-24T07:10:10.720Z,79.86
2023-03-24T07:12:38.257Z,80.04
2023-03-24T07:15:07.447Z,79.95
2023-03-24T07:17:35.080Z,79.82
2023-03-24T07:20:16.637Z,79.84
2023-03-24T07:22:56.803Z,79.81
2023-03-24T07:25:27.040Z,79.69
2023-03-24T07:28:14.261Z,79.51
2023-03-24T07:30:41.531Z,80.22
2023-03-24T07:33:12.729Z,80.77
2023-03-24T07:35:43.026Z,81.36
2023-03-24T07:38:10.744Z,81.82
2023-03-24T07:40:38.516Z,81.94
2023-03-24T07:43:06.263Z,81.89
2023-03-24T07:45:47.231Z,81.95
2023-03-24T07:48:14.773Z,82.22
2023-03-24T07:50:42.157Z,83.05
2023-03-24T07:53:41.527Z,83.22
2023-03-24T07:56:09.039Z,83.59
2023-03-24T07:58:41.405Z,84.40
2023-03-24T08:01:25.997Z,84.27
2023-03-24T08:03:55.236Z,84.66
2023-03-24T08:06:46.120Z,84.98
2023-03-24T08:09:14.794Z,85.71
2023-03-24T08:11:42.396Z,86.03
2023-03-24T08:14:09.590Z,86.52
2023-03-24T08:16:39.040Z,86.66
2023-03-24T08:19:06.510Z,87.24
2023-03-24T08:21:34.207Z,87.92
2023-03-24T08:24:01.153Z,88.09
2023-03-24T08:26:29.179Z,88.47
2023-03-24T08:28:56.954Z,88.86
2023-03-24T08:31:24.183Z,88.83
2023-03-24T08:33:51.291Z,88.63
2023-03-24T08:36:18.647Z,89.36
2023-03-24T08:38:48.149Z,89.31
2023-03-24T08:41:16.828Z,88.83
2023-03-24T08:43:44.541Z,89.42
2023-03-24T08:46:13.906Z,89.19
2023-03-24T08:48:41.468Z,88.49
2023-03-24T08:51:16.589Z,89.25
2023-03-24T08:53:44.078Z,89.33
2023-03-24T08:56:11.588Z,89.36
2023-03-24T08:58:38.481Z,89.71
2023-03-24T09:01:06.142Z,90.04
2023-03-24T09:03:33.113Z,89.71
2023-03-24T09:06:00.582Z,89.06
2023-03-24T09:08:28.080Z,88.75
2023-03-24T09:10:56.517Z,88.85
2023-03-24T09:13:23.960Z,88.31
2023-03-24T09:15:54.209Z,87.08
2023-03-24T09:18:22.089Z,86.18
2023-03-24T09:20:50.155Z,85.77
2023-03-24T09:23:18.005Z,83.58
2023-03-24T09:25:46.047Z,83.56
2023-03-24T09:28:15.158Z,83.05
2023-03-24T09:30:43.626Z,82.58
2023-03-24T09:33:11.704Z,82.35
2023-03-24T09:35:39.067Z,81.34
2023-03-24T09:38:06.239Z,81.63
2023-03-24T09:40:37.824Z,81.05
2023-03-24T09:43:28.078Z,79.96
2023-03-24T09:45:58.859Z,77.74
2023-03-24T09:48:31.598Z,77.15
2023-03-24T09:51:29.189Z,76.36
2023-03-24T09:54:08.252Z,74.57
2023-03-24T09:56:39.093Z,74.85
2023-03-24T09:59:12.595Z,73.44
2023-03-24T10:01:39.964Z,73.83
2023-03-24T10:04:21.340Z,72.43
2023-03-24T10:06:57.349Z,72.22
2023-03-24T10:09:31.020Z,71.68
2023-03-24T10:12:33.518Z,71.47
2023-03-24T10:15:16.158Z,70.67
2023-03-24T10:18:06.802Z,70.68
2023-03-24T10:20:41.032Z,70.98
2023-03-24T10:23:23.167Z,71.34
2023-03-24T10:25:58.909Z,71.66
2023-03-24T10:28:43.170Z,72.41
2023-03-24T10:31:13.810Z,72.97
2023-03-24T10:33:45.875Z,73.33
2023-03-24T10:36:21.435Z,73.56
2023-03-24T10:38:49.240Z,73.42
2023-03-24T10:41:25.966Z,73.58
2023-03-24T10:43:56.469Z,73.86
2023-03-24T10:46:30.469Z,74.02
2023-03-24T10:49:17.534Z,73.58
2023-03-24T10:51:50.700Z,73.56
2023-03-24T10:54:22.171Z,73.72
2023-03-24T10:56:58.990Z,73.86
2023-03-24T10:59:27.454Z,73.92
2023-03-24T11:02:38.274Z,73.31
2023-03-24T11:05:17.060Z,73.36
2023-03-24T11:07:47.030Z,73.35
2023-03-24T11:10:17.373Z,73.32
2023-03-24T11:12:53.587Z,73.24
2023-03-24T11:15:29.426Z,73.30
2023-03-24T11:18:08.548Z,73.40
2023-03-24T11:20:39.327Z,73.68
2023-03-24T11:23:47.686Z,73.49
2023-03-24T11:26:28.538Z,73.43
2023-03-24T11:29:02.753Z,73.04
2023-03-24T11:31:39.254Z,73.47
2023-03-24T11:34:42.460Z,73.59
2023-03-24T11:37:16.133Z,73.54
2023-03-24T11:39:44.347Z,73.47
2023-03-24T11:42:12.329Z,73.56
2023-03-24T11:44:39.478Z,73.37
2023-03-24T11:47:17.057Z,73.33
2023-03-24T11:50:12.158Z,72.69
2023-03-24T11:53:07.944Z,72.92
2023-03-24T11:56:03.216Z,72.68
2023-03-24T11:58:39.858Z,72.53
2023-03-24T12:01:12.024Z,72.35
2023-03-24T12:04:04.022Z,71.55
2023-03-24T12:06:40.047Z,71.39
2023-03-24T12:09:14.993Z,71.14
2023-03-24T12:12:26.608Z,70.24
2023-03-24T12:15:29.426Z,68.99
2023-03-24T12:18:24.240Z,68.79
2023-03-24T12:21:21.711Z,68.40
2023-03-24T12:24:02.389Z,67.79
2023-03-24T12:26:34.745Z,66.51
2023-03-24T12:29:38.389Z,66.50
2023-03-24T12:32:24.381Z,65.35
2023-03-24T12:35:11.518Z,64.63
2023-03-24T12:38:25.839Z,62.97
2023-03-24T12:40:57.235Z,62.68
2023-03-24T12:43:58.576Z,61.81
2023-03-24T12:46:56.446Z,61.55
2023-03-24T12:50:02.587Z,61.18
2023-03-24T12:52:39.081Z,60.03
2023-03-24T12:55:21.128Z,59.55
2023-03-24T12:57:55.409Z,59.08
2023-03-24T13:00:28.601Z,59.29
2023-03-24T13:03:00.007Z,59.28
2023-03-24T13:05:31.982Z,58.83
2023-03-24T13:08:02.772Z,59.20
2023-03-24T13:10:40.569Z,59.01
2023-03-24T13:13:13.439Z,59.22
2023-03-24T13:15:48.670Z,59.20
2023-03-24T13:18:30.312Z,58.59
2023-03-24T13:21:00.391Z,58.52
2023-03-24T13:23:55.220Z,57.99
2023-03-24T13:26:54.191Z,58.07
2023-03-24T13:29:38.376Z,57.62
2023-03-24T13:32:22.412Z,57.70
2023-03-24T13:35:04.912Z,57.90
2023-03-24T13:37:43.530Z,57.64
2023-03-24T13:40:28.835Z,57.41
2023-03-24T13:43:01.233Z,57.05
2023-03-24T13:45:44.362Z,57.26
2023-03-24T13:48:11.832Z,57.04
2023-03-24T13:50:46.994Z,57.38
2023-03-24T13:53:15.784Z,57.02
2023-03-24T13:55:53.115Z,56.39
2023-03-24T13:58:28.412Z,56.33
2023-03-24T14:01:11.126Z,56.25
2023-03-24T14:03:43.369Z,56.70
2023-03-24T14:06:15.387Z,56.50
2023-03-24T14:08:48.511Z,56.10
2023-03-24T14:11:34.313Z,56.34
2023-03-24T14:14:07.212Z,56.21
2023-03-24T14:17:09.015Z,56.22
2023-03-24T14:19:42.115Z,55.37
2023-03-24T14:22:11.387Z,55.19
2023-03-24T14:24:43.690Z,55.13
2023-03-24T14:27:35.134Z,55.76
2023-03-24T14:30:19.199Z,55.46
2023-03-24T14:32:50.292Z,55.25
2023-03-24T14:35:26.501Z,55.39
2023-03-24T14:37:56.973Z,55.23
2023-03-24T14:40:33.551Z,55.45
2023-03-24T14:43:18.214Z,55.28
2023-03-24T14:46:00.979Z,55.45
2023-03-24T14:48:34.051Z,55.90
2023-03-24T14:51:08.898Z,56.25
2023-03-24T14:53:38.609Z,56.57
2023-03-24T14:56:16.241Z,57.34
2023-03-24T14:58:48.814Z,57.64
2023-03-24T15:01:17.826Z,56.67
2023-03-24T15:03:49.841Z,56.69
2023-03-24T15:06:19.679Z,56.69
2023-03-24T15:08:55.580Z,56.77
2023-03-24T15:11:30.132Z,56.41
2023-03-24T15:13:57.565Z,56.42
2023-03-24T15:16:24.778Z,56.64
2023-03-24T15:19:19.503Z,56.51
2023-03-24T15:22:05.905Z,56.62
2023-03-24T15:24:36.214Z,56.76
2023-03-24T15:27:09.423Z,56.94
2023-03-24T15:29:41.675Z,57.10
2023-03-24T15:32:32.070Z,57.29
2023-03-24T15:35:05.867Z,57.60
2023-03-24T15:37:41.421Z,57.69
2023-03-24T15:40:27.170Z,57.96
2023-03-24T15:42:57.338Z,58.05
2023-03-24T15:45:27.495Z,58.17
2023-03-24T15:47:56.149Z,58.26
2023-03-24T15:50:28.883Z,58.31
2023-03-24T15:53:06.564Z,58.62
2023-03-24T15:55:36.716Z,58.85
2023-03-24T15:58:23.905Z,58.97
2023-03-24T16:00:54.678Z,59.43
2023-03-24T16:03:26.598Z,59.84
2023-03-24T16:05:56.446Z,60.23
2023-03-24T16:08:36.169Z,60.90
2023-03-24T16:11:11.651Z,61.01
2023-03-24T16:13:45.010Z,61.29
2023-03-24T16:16:15.143Z,61.54
2023-03-24T16:18:45.327Z,61.68
2023-03-24T16:21:24.243Z,61.86
2023-03-24T16:23:53.473Z,62.22
2023-03-24T16:26:23.899Z,62.42
2023-03-24T16:28:52.626Z,62.63
2023-03-24T16:31:30.995Z,62.80
2023-03-24T16:33:59.417Z,62.85
2023-03-24T16:36:26.992Z,63.13
2023-03-24T16:38:56.321Z,63.30
2023-03-24T16:41:24.107Z,64.04
2023-03-24T16:43:53.190Z,65.07
2023-03-24T16:46:26.460Z,65.85
2023-03-24T16:48:54.107Z,66.38
2023-03-24T16:51:21.688Z,66.52
2023-03-24T16:53:49.159Z,67.18
2023-03-24T16:56:18.431Z,67.96
2023-03-24T16:58:48.930Z,68.86
2023-03-24T17:01:26.542Z,69.27
2023-03-24T17:03:59.591Z,69.61
2023-03-24T17:06:29.196Z,70.65
2023-03-24T17:08:56.850Z,71.19
2023-03-24T17:11:30.494Z,71.81
2023-03-24T17:14:08.960Z,72.74
2023-03-24T17:16:38.374Z,74.92
2023-03-24T17:19:06.642Z,78.25
2023-03-24T17:21:40.671Z,83.62
2023-03-24T17:24:10.682Z,87.10
2023-03-24T17:26:38.429Z,90.56
2023-03-24T17:29:06.483Z,92.75
2023-03-24T17:31:33.904Z,95.32
2023-03-24T17:34:08.497Z,96.91
2023-03-24T17:36:49.663Z,99.28
2023-03-24T17:39:18.093Z,100.00
2023-03-24T17:41:45.242Z,100.00
2023-03-24T17:44:12.570Z,100.00
2023-03-24T17:46:39.638Z,100.00
2023-03-24T17:49:07.051Z,100.00
2023-03-24T17:51:33.992Z,100.00
2023-03-24T17:54:01.451Z,100.00
2023-03-24T17:56:28.690Z,100.00
2023-03-24T17:59:03.484Z,100.00
2023-03-24T18:01:30.596Z,100.00
2023-03-24T18:03:58.182Z,100.00
2023-03-24T18:06:25.334Z,100.00
2023-03-24T18:08:52.704Z,100.00
2023-03-24T18:11:20.033Z,100.00
2023-03-24T18:13:47.305Z,100.00
2023-03-24T18:16:21.202Z,100.00
2023-03-24T18:18:51.136Z,100.00
2023-03-24T18:21:19.300Z,100.00
2023-03-24T18:23:47.122Z,100.00
2023-03-24T18:26:16.402Z,100.00
2023-03-24T18:28:48.228Z,100.00
2023-03-24T18:31:18.947Z,100.00
2023-03-24T18:33:47.946Z,100.00
2023-03-24T18:36:16.841Z,100.00
2023-03-24T18:38:44.445Z,100.00
2023-03-24T18:41:13.036Z,100.00
2023-03-24T18:43:47.645Z,100.00
2023-03-24T18:46:15.476Z,100.00
2023-03-24T18:48:43.270Z,100.00
2023-03-24T18:51:11.457Z,100.00
2023-03-24T18:53:38.961Z,100.00
2023-03-24T18:56:08.426Z,100.00
2023-03-24T18:58:38.272Z,100.00
2023-03-24T19:01:11.420Z,100.00
2023-03-24T19:03:41.063Z,100.00
2023-03-24T19:06:10.377Z,100.00
2023-03-24T19:08:41.157Z,100.00
2023-03-24T19:11:09.980Z,100.00
2023-03-24T19:13:37.665Z,100.00
2023-03-24T19:16:05.583Z,100.00
2023-03-24T19:18:32.908Z,100.00
2023-03-24T19:21:02.096Z,100.00
2023-03-24T19:23:30.558Z,100.00
2023-03-24T19:25:57.681Z,100.00
2023-03-24T19:28:29.253Z,100.00
2023-03-24T19:30:57.362Z,100.00
2023-03-24T19:33:25.624Z,100.00
2023-03-24T19:35:52.931Z,100.00
2023-03-24T19:38:24.335Z,100.00
2023-03-24T19:40:53.891Z,100.00
2023-03-24T19:43:22.914Z,100.00
2023-03-24T19:45:51.793Z,100.00
2023-03-24T19:48:19.272Z,100.00
2023-03-24T19:50:46.678Z,100.00
2023-03-24T19:53:14.027Z,100.00
2023-03-24T19:55:40.994Z,100.00
2023-03-24T19:58:08.495Z,100.00
2023-03-24T20:00:36.023Z,100.00
2023-03-24T20:03:03.430Z,100.00
2023-03-24T20:05:30.890Z,100.00
2023-03-24T20:08:00.043Z,100.00
2023-03-24T20:10:27.879Z,100.00
2023-03-24T20:12:56.204Z,100.00
2023-03-24T20:15:24.417Z,100.00
2023-03-24T20:17:52.606Z,100.00
2023-03-24T20:20:20.223Z,100.00
2023-03-24T20:22:49.686Z,100.00
2023-03-24T20:25:19.219Z,100.00
2023-03-24T20:27:47.896Z,100.00
2023-03-24T20:30:17.712Z,100.00
2023-03-24T20:32:45.910Z,100.00
2023-03-24T20:35:12.963Z,100.00
2023-03-24T20:37:40.252Z,100.00
2023-03-24T20:40:09.836Z,100.00
2023-03-24T20:42:38.359Z,100.00
2023-03-24T20:45:07.347Z,100.00
2023-03-24T20:47:35.810Z,100.00
2023-03-24T20:50:03.674Z,100.00
2023-03-24T20:52:32.625Z,100.00
2023-03-24T20:55:01.611Z,100.00
2023-03-24T20:57:31.398Z,100.00
2023-03-24T20:59:58.713Z,100.00
2023-03-24T21:02:26.257Z,100.00
2023-03-24T21:04:53.340Z,100.00
2023-03-24T21:07:20.585Z,100.00
2023-03-24T21:09:47.676Z,100.00
2023-03-24T21:12:15.062Z,100.00
2023-03-24T21:14:42.506Z,100.00
2023-03-24T21:17:09.814Z,100.00
2023-03-24T21:19:37.230Z,100.00
2023-03-24T21:22:04.506Z,100.00
2023-03-24T21:24:31.560Z,100.00
2023-03-24T21:27:00.149Z,100.00
2023-03-24T21:29:27.163Z,100.00
2023-03-24T21:31:54.653Z,100.00
2023-03-24T21:34:21.804Z,99.17
2023-03-24T21:36:49.708Z,99.28
2023-03-24T21:39:17.224Z,97.43
2023-03-24T21:41:44.595Z,97.03
2023-03-24T21:44:11.664Z,96.26
2023-03-24T21:46:38.867Z,97.29
2023-03-24T21:49:06.342Z,97.76
2023-03-24T21:51:34.737Z,98.71
2023-03-24T21:54:03.593Z,99.58
2023-03-24T21:56:32.806Z,100.00
2023-03-24T21:59:00.758Z,100.00
2023-03-24T22:01:28.170Z,100.00
2023-03-24T22:03:55.928Z,100.00
2023-03-24T22:06:23.549Z,100.00
2023-03-24T22:08:53.180Z,100.00
2023-03-24T22:11:20.627Z,100.00
2023-03-24T22:13:47.639Z,100.00
2023-03-24T22:16:15.051Z,100.00
2023-03-24T22:18:42.416Z,100.00
2023-03-24T22:21:11.154Z,100.00
2023-03-24T22:23:40.510Z,100.00
2023-03-24T22:26:14.146Z,100.00
2023-03-24T22:28:43.523Z,100.00
2023-03-24T22:31:13.747Z,100.00
2023-03-24T22:33:41.047Z,100.00
2023-03-24T22:36:09.277Z,100.00
2023-03-24T22:38:36.816Z,100.00
2023-03-24T22:41:07.076Z,100.00
2023-03-24T22:43:35.669Z,100.00
2023-03-24T22:46:03.751Z,100.00
2023-03-24T22:48:31.367Z,100.00
2023-03-24T22:50:58.801Z,100.00
2023-03-24T22:53:25.860Z,100.00
2023-03-24T22:55:53.718Z,100.00
2023-03-24T22:58:21.366Z,100.00
2023-03-24T23:00:50.187Z,100.00
2023-03-24T23:03:17.224Z,100.00
2023-03-24T23:05:46.258Z,100.00
2023-03-24T23:08:15.484Z,100.00
2023-03-24T23:10:44.761Z,100.00
2023-03-24T23:13:12.563Z,100.00
2023-03-24T23:15:42.518Z,100.00
2023-03-24T23:18:10.466Z,99.90
2023-03-24T23:20:38.028Z,100.00
2023-03-24T23:23:06.997Z,99.87
2023-03-24T23:25:40.109Z,100.00
2023-03-24T23:28:07.242Z,100.00
2023-03-24T23:30:34.601Z,100.00
2023-03-24T23:33:03.592Z,100.00
2023-03-24T23:35:33.161Z,100.00
2023-03-24T23:38:02.298Z,100.00
2023-03-24T23:40:29.608Z,100.00
2023-03-24T23:42:56.492Z,99.71
2023-03-24T23:45:23.888Z,99.41
2023-03-24T23:47:51.814Z,99.58
2023-03-24T23:50:20.595Z,100.00
2023-03-24T23:52:48.282Z,99.77
2023-03-24T23:55:18.154Z,99.67
2023-03-24T23:57:46.358Z,100.00
